This is the latest recevied weather packets stored in our database for station/object VE6CWS-7. If no packets are shown the sender has not sent any weather packets the latest 10 day(s).
| Time | Temp. | Humidity | Pressure | Rain* | Wind** | Luminosity | Snow |
|---|---|---|---|---|---|---|---|
| 1778319051 | 10° C | 52% | 1011.9 hPa | 0 mm | - | - | - |
| 1778318152 | 11.11° C | 47% | 1011.9 hPa | 0 mm | - | - | - |
| 1778317308 | 11.67° C | 46% | 1011.9 hPa | 0 mm | - | - | - |
| 1778316342 | 12.22° C | 43% | 1011.9 hPa | 0 mm | - | - | - |
| 1778315440 | 11.11° C | 48% | 1011.9 hPa | 0 mm | - | - | - |
| 1778314538 | 11.11° C | 48% | 1011.7 hPa | 0 mm | - | - | - |
| 1778313695 | 11.11° C | 50% | 1011.6 hPa | 0 mm | - | - | - |
| 1778312741 | 11.67° C | 47% | 1011.3 hPa | 0 mm | - | - | - |
| 1778311845 | 11.67° C | 46% | 1011.1 hPa | 0 mm | - | - | - |
| 1778310936 | 12.22° C | 45% | 1010.8 hPa | 0 mm | - | - | - |
| 1778310094 | 12.22° C | 45% | 1010.6 hPa | 0 mm | - | - | - |
| 1778309156 | 11.67° C | 46% | 1010.5 hPa | 0 mm | - | - | - |
| 1778308244 | 12.22° C | 47% | 1010.4 hPa | 0 mm | - | - | - |
| 1778307351 | 12.22° C | 47% | 1010.3 hPa | 0 mm | - | - | - |
| 1778306497 | 12.78° C | 45% | 1010.2 hPa | 0 mm | - | - | - |
| 1778305567 | 12.78° C | 44% | 1010.1 hPa | 0 mm | - | - | - |
| 1778304652 | 13.33° C | 43% | 1009.9 hPa | 0 mm | - | - | - |
| 1778303747 | 13.33° C | 42% | 1009.6 hPa | 0 mm | - | - | - |
| 1778302905 | 13.89° C | 40% | 1009.6 hPa | 0 mm | - | - | - |
| 1778301967 | 14.44° C | 40% | 1009.6 hPa | 0 mm | - | - | - |
| 1778301053 | 14.44° C | 39% | 1009.4 hPa | 0 mm | - | - | - |
| 1778300150 | 15° C | 38% | 1009.1 hPa | 0 mm | - | - | - |
| 1778299309 | 15.56° C | 36% | 1009 hPa | 0 mm | - | - | - |
| 1778298339 | 15.56° C | 35% | 1008.8 hPa | 0 mm | - | - | - |
| 1778297435 | 16.11° C | 35% | 1008.6 hPa | 0 mm | - | - | - |
* Rain latest hour (hover to see other rain measurements)
** Current wind speed in m/s (hover to see current wind gust speed)